sensor_id;sensor_type;location;lat;lon;timestamp;P1;durP1;ratioP1;P2;durP2;ratioP2
37107;SDS011;23019;49.300;6.846;2022-10-31T00:01:10;2.30;;;1.30;;
37107;SDS011;23019;49.300;6.846;2022-10-31T00:03:12;1.02;;;0.90;;
37107;SDS011;23019;49.300;6.846;2022-10-31T00:05:13;1.40;;;1.30;;
37107;SDS011;23019;49.300;6.846;2022-10-31T00:07:14;1.00;;;0.70;;
37107;SDS011;23019;49.300;6.846;2022-10-31T00:09:14;1.02;;;0.80;;
37107;SDS011;23019;49.300;6.846;2022-10-31T00:11:15;1.85;;;0.88;;
37107;SDS011;23019;49.300;6.846;2022-10-31T00:13:15;1.60;;;0.90;;
37107;SDS011;23019;49.300;6.846;2022-10-31T00:15:16;0.90;;;0.77;;
37107;SDS011;23019;49.300;6.846;2022-10-31T00:17:17;3.17;;;0.77;;
37107;SDS011;23019;49.300;6.846;2022-10-31T00:19:17;1.63;;;1.00;;
37107;SDS011;23019;49.300;6.846;2022-10-31T00:21:19;1.05;;;0.90;;
37107;SDS011;23019;49.300;6.846;2022-10-31T00:23:20;1.98;;;0.98;;
37107;SDS011;23019;49.300;6.846;2022-10-31T00:25:20;2.45;;;0.95;;
37107;SDS011;23019;49.300;6.846;2022-10-31T00:27:21;2.17;;;1.10;;
37107;SDS011;23019;49.300;6.846;2022-10-31T00:29:21;1.08;;;0.98;;
37107;SDS011;23019;49.300;6.846;2022-10-31T00:31:22;0.90;;;0.80;;
37107;SDS011;23019;49.300;6.846;2022-10-31T00:33:23;2.03;;;1.10;;
37107;SDS011;23019;49.300;6.846;2022-10-31T00:35:24;0.90;;;0.70;;
37107;SDS011;23019;49.300;6.846;2022-10-31T00:37:25;1.83;;;1.17;;
37107;SDS011;23019;49.300;6.846;2022-10-31T00:39:26;1.70;;;0.70;;
37107;SDS011;23019;49.300;6.846;2022-10-31T00:41:27;1.02;;;0.80;;
37107;SDS011;23019;49.300;6.846;2022-10-31T00:43:29;5.72;;;1.17;;
37107;SDS011;23019;49.300;6.846;2022-10-31T00:45:29;3.47;;;1.23;;
37107;SDS011;23019;49.300;6.846;2022-10-31T00:47:30;2.17;;;1.10;;
37107;SDS011;23019;49.300;6.846;2022-10-31T00:49:30;1.00;;;0.73;;
37107;SDS011;23019;49.300;6.846;2022-10-31T00:51:31;0.80;;;0.80;;
37107;SDS011;23019;49.300;6.846;2022-10-31T00:53:32;4.80;;;1.65;;
37107;SDS011;23019;49.300;6.846;2022-10-31T00:55:33;1.38;;;0.90;;
37107;SDS011;23019;49.300;6.846;2022-10-31T00:57:34;2.03;;;1.15;;
37107;SDS011;23019;49.300;6.846;2022-10-31T00:59:36;2.05;;;0.90;;
37107;SDS011;23019;49.300;6.846;2022-10-31T01:01:37;1.80;;;0.98;;
37107;SDS011;23019;49.300;6.846;2022-10-31T01:03:38;1.38;;;1.00;;
37107;SDS011;23019;49.300;6.846;2022-10-31T01:05:43;3.50;;;0.90;;
37107;SDS011;23019;49.300;6.846;2022-10-31T01:07:44;2.60;;;1.13;;
37107;SDS011;23019;49.300;6.846;2022-10-31T01:09:44;2.83;;;1.10;;
37107;SDS011;23019;49.300;6.846;2022-10-31T01:11:45;1.17;;;0.70;;
37107;SDS011;23019;49.300;6.846;2022-10-31T01:13:46;2.70;;;1.13;;
37107;SDS011;23019;49.300;6.846;2022-10-31T01:15:53;1.02;;;0.70;;
37107;SDS011;23019;49.300;6.846;2022-10-31T01:17:54;1.63;;;1.37;;
37107;SDS011;23019;49.300;6.846;2022-10-31T01:19:55;3.15;;;1.05;;
37107;SDS011;23019;49.300;6.846;2022-10-31T01:21:55;1.13;;;0.80;;
37107;SDS011;23019;49.300;6.846;2022-10-31T01:23:56;1.95;;;0.80;;
37107;SDS011;23019;49.300;6.846;2022-10-31T01:28:09;1.42;;;0.70;;
37107;SDS011;23019;49.300;6.846;2022-10-31T01:30:10;8.90;;;1.20;;
37107;SDS011;23019;49.300;6.846;2022-10-31T01:32:11;3.75;;;1.17;;
37107;SDS011;23019;49.300;6.846;2022-10-31T01:34:12;1.10;;;1.00;;
37107;SDS011;23019;49.300;6.846;2022-10-31T01:36:19;1.65;;;1.30;;
37107;SDS011;23019;49.300;6.846;2022-10-31T01:38:24;1.60;;;1.05;;
37107;SDS011;23019;49.300;6.846;2022-10-31T01:40:28;1.88;;;1.33;;
37107;SDS011;23019;49.300;6.846;2022-10-31T01:42:30;1.20;;;1.00;;
37107;SDS011;23019;49.300;6.846;2022-10-31T01:46:36;1.48;;;1.02;;
37107;SDS011;23019;49.300;6.846;2022-10-31T01:48:39;1.33;;;0.80;;
37107;SDS011;23019;49.300;6.846;2022-10-31T01:50:41;1.23;;;0.90;;
37107;SDS011;23019;49.300;6.846;2022-10-31T01:52:45;2.17;;;0.90;;
37107;SDS011;23019;49.300;6.846;2022-10-31T01:54:51;1.10;;;0.80;;
37107;SDS011;23019;49.300;6.846;2022-10-31T01:56:58;1.00;;;0.85;;
37107;SDS011;23019;49.300;6.846;2022-10-31T01:59:00;2.30;;;1.30;;
37107;SDS011;23019;49.300;6.846;2022-10-31T02:01:02;1.35;;;1.17;;
37107;SDS011;23019;49.300;6.846;2022-10-31T02:03:04;5.95;;;1.30;;
37107;SDS011;23019;49.300;6.846;2022-10-31T02:05:06;2.67;;;1.13;;
37107;SDS011;23019;49.300;6.846;2022-10-31T02:07:34;1.58;;;0.90;;
37107;SDS011;23019;49.300;6.846;2022-10-31T02:09:51;6.05;;;1.20;;
37107;SDS011;23019;49.300;6.846;2022-10-31T02:11:54;1.35;;;1.00;;
37107;SDS011;23019;49.300;6.846;2022-10-31T02:13:58;1.40;;;0.82;;
37107;SDS011;23019;49.300;6.846;2022-10-31T02:16:00;2.00;;;1.23;;
37107;SDS011;23019;49.300;6.846;2022-10-31T02:18:01;3.38;;;1.38;;
37107;SDS011;23019;49.300;6.846;2022-10-31T02:20:19;2.15;;;1.00;;
37107;SDS011;23019;49.300;6.846;2022-10-31T02:33:56;6.68;;;1.95;;
37107;SDS011;23019;49.300;6.846;2022-10-31T02:36:16;1.65;;;1.30;;
37107;SDS011;23019;49.300;6.846;2022-10-31T02:43:29;5.63;;;1.42;;
37107;SDS011;23019;49.300;6.846;2022-10-31T02:48:29;2.20;;;1.50;;
37107;SDS011;23019;49.300;6.846;2022-10-31T02:50:35;3.75;;;1.55;;
37107;SDS011;23019;49.300;6.846;2022-10-31T02:54:44;3.90;;;1.90;;
37107;SDS011;23019;49.300;6.846;2022-10-31T02:56:47;1.50;;;1.05;;
37107;SDS011;23019;49.300;6.846;2022-10-31T02:59:07;1.70;;;1.40;;
37107;SDS011;23019;49.300;6.846;2022-10-31T03:03:40;4.78;;;1.40;;
37107;SDS011;23019;49.300;6.846;2022-10-31T03:08:35;2.10;;;1.08;;
37107;SDS011;23019;49.300;6.846;2022-10-31T03:17:23;3.40;;;1.30;;
37107;SDS011;23019;49.300;6.846;2022-10-31T03:19:29;1.77;;;1.23;;
37107;SDS011;23019;49.300;6.846;2022-10-31T03:22:01;1.65;;;1.08;;
37107;SDS011;23019;49.300;6.846;2022-10-31T03:24:11;1.20;;;1.10;;
37107;SDS011;23019;49.300;6.846;2022-10-31T03:26:14;2.28;;;1.35;;
37107;SDS011;23019;49.300;6.846;2022-10-31T03:28:16;2.10;;;1.20;;
37107;SDS011;23019;49.300;6.846;2022-10-31T03:30:24;4.07;;;1.25;;
37107;SDS011;23019;49.300;6.846;2022-10-31T03:32:40;1.60;;;1.00;;
37107;SDS011;23019;49.300;6.846;2022-10-31T03:34:44;2.22;;;1.50;;
37107;SDS011;23019;49.300;6.846;2022-10-31T03:36:46;2.05;;;1.10;;
37107;SDS011;23019;49.300;6.846;2022-10-31T03:38:51;3.65;;;1.15;;
37107;SDS011;23019;49.300;6.846;2022-10-31T03:40:53;1.80;;;1.42;;
37107;SDS011;23019;49.300;6.846;2022-10-31T03:42:58;2.03;;;1.42;;
37107;SDS011;23019;49.300;6.846;2022-10-31T03:47:11;1.45;;;1.35;;
37107;SDS011;23019;49.300;6.846;2022-10-31T03:49:12;2.55;;;1.52;;
37107;SDS011;23019;49.300;6.846;2022-10-31T03:51:19;5.00;;;1.17;;
37107;SDS011;23019;49.300;6.846;2022-10-31T03:55:59;2.10;;;1.65;;
37107;SDS011;23019;49.300;6.846;2022-10-31T04:00:10;1.63;;;1.10;;
37107;SDS011;23019;49.300;6.846;2022-10-31T04:02:19;4.25;;;1.67;;
37107;SDS011;23019;49.300;6.846;2022-10-31T04:04:25;2.78;;;1.60;;
37107;SDS011;23019;49.300;6.846;2022-10-31T04:06:27;2.30;;;1.40;;
37107;SDS011;23019;49.300;6.846;2022-10-31T04:08:30;5.05;;;1.58;;
37107;SDS011;23019;49.300;6.846;2022-10-31T04:10:37;3.90;;;1.48;;
37107;SDS011;23019;49.300;6.846;2022-10-31T04:12:41;2.28;;;1.67;;
37107;SDS011;23019;49.300;6.846;2022-10-31T04:15:09;2.92;;;1.58;;
37107;SDS011;23019;49.300;6.846;2022-10-31T04:17:14;5.13;;;1.50;;
37107;SDS011;23019;49.300;6.846;2022-10-31T04:19:19;1.92;;;1.60;;
37107;SDS011;23019;49.300;6.846;2022-10-31T04:21:19;2.60;;;2.40;;
37107;SDS011;23019;49.300;6.846;2022-10-31T04:23:28;3.92;;;1.73;;
37107;SDS011;23019;49.300;6.846;2022-10-31T04:25:29;2.75;;;1.50;;
37107;SDS011;23019;49.300;6.846;2022-10-31T04:27:31;2.80;;;1.45;;
37107;SDS011;23019;49.300;6.846;2022-10-31T04:29:32;2.65;;;1.63;;
37107;SDS011;23019;49.300;6.846;2022-10-31T04:31:32;2.70;;;1.83;;
37107;SDS011;23019;49.300;6.846;2022-10-31T04:33:33;5.30;;;1.67;;
37107;SDS011;23019;49.300;6.846;2022-10-31T04:35:36;4.47;;;1.70;;
37107;SDS011;23019;49.300;6.846;2022-10-31T04:37:36;2.05;;;1.50;;
37107;SDS011;23019;49.300;6.846;2022-10-31T04:39:37;5.20;;;1.73;;
37107;SDS011;23019;49.300;6.846;2022-10-31T04:41:58;4.35;;;1.90;;
37107;SDS011;23019;49.300;6.846;2022-10-31T04:43:58;3.03;;;1.60;;
37107;SDS011;23019;49.300;6.846;2022-10-31T04:46:01;2.15;;;1.17;;
37107;SDS011;23019;49.300;6.846;2022-10-31T04:48:02;5.20;;;1.90;;
37107;SDS011;23019;49.300;6.846;2022-10-31T04:50:04;3.78;;;1.60;;
37107;SDS011;23019;49.300;6.846;2022-10-31T04:52:07;2.22;;;1.23;;
37107;SDS011;23019;49.300;6.846;2022-10-31T04:54:08;3.55;;;1.40;;
37107;SDS011;23019;49.300;6.846;2022-10-31T04:56:15;1.65;;;1.48;;
37107;SDS011;23019;49.300;6.846;2022-10-31T04:58:19;2.30;;;1.50;;
37107;SDS011;23019;49.300;6.846;2022-10-31T05:00:20;5.70;;;1.90;;
37107;SDS011;23019;49.300;6.846;2022-10-31T05:02:24;2.47;;;1.90;;
37107;SDS011;23019;49.300;6.846;2022-10-31T05:04:29;2.55;;;2.35;;
37107;SDS011;23019;49.300;6.846;2022-10-31T05:06:29;3.88;;;2.08;;
37107;SDS011;23019;49.300;6.846;2022-10-31T05:08:31;3.95;;;2.00;;
37107;SDS011;23019;49.300;6.846;2022-10-31T05:10:32;3.65;;;1.85;;
37107;SDS011;23019;49.300;6.846;2022-10-31T05:12:34;3.72;;;2.08;;
37107;SDS011;23019;49.300;6.846;2022-10-31T05:14:40;2.70;;;2.50;;
37107;SDS011;23019;49.300;6.846;2022-10-31T05:17:10;2.35;;;1.92;;
37107;SDS011;23019;49.300;6.846;2022-10-31T05:19:29;3.90;;;2.13;;
37107;SDS011;23019;49.300;6.846;2022-10-31T05:22:01;4.65;;;1.98;;
37107;SDS011;23019;49.300;6.846;2022-10-31T05:24:03;3.22;;;1.85;;
37107;SDS011;23019;49.300;6.846;2022-10-31T05:26:04;1.85;;;1.75;;
37107;SDS011;23019;49.300;6.846;2022-10-31T05:28:07;7.43;;;1.77;;
37107;SDS011;23019;49.300;6.846;2022-10-31T05:30:09;6.13;;;1.90;;
37107;SDS011;23019;49.300;6.846;2022-10-31T05:32:11;2.58;;;1.75;;
37107;SDS011;23019;49.300;6.846;2022-10-31T05:34:35;2.97;;;1.55;;
37107;SDS011;23019;49.300;6.846;2022-10-31T05:36:47;2.83;;;2.05;;
37107;SDS011;23019;49.300;6.846;2022-10-31T05:38:53;4.80;;;1.48;;
37107;SDS011;23019;49.300;6.846;2022-10-31T05:41:04;3.65;;;1.30;;
37107;SDS011;23019;49.300;6.846;2022-10-31T05:43:07;1.42;;;1.33;;
37107;SDS011;23019;49.300;6.846;2022-10-31T05:45:08;1.70;;;1.60;;
37107;SDS011;23019;49.300;6.846;2022-10-31T05:47:40;2.30;;;1.55;;
37107;SDS011;23019;49.300;6.846;2022-10-31T05:50:07;1.87;;;1.70;;
37107;SDS011;23019;49.300;6.846;2022-10-31T05:52:32;3.53;;;1.67;;
37107;SDS011;23019;49.300;6.846;2022-10-31T05:54:40;4.10;;;1.98;;
37107;SDS011;23019;49.300;6.846;2022-10-31T05:56:42;2.78;;;1.45;;
37107;SDS011;23019;49.300;6.846;2022-10-31T05:58:43;2.13;;;1.33;;
37107;SDS011;23019;49.300;6.846;2022-10-31T06:00:44;2.65;;;2.22;;
37107;SDS011;23019;49.300;6.846;2022-10-31T06:02:45;1.95;;;1.70;;
37107;SDS011;23019;49.300;6.846;2022-10-31T06:05:04;3.83;;;1.58;;
37107;SDS011;23019;49.300;6.846;2022-10-31T06:07:05;2.00;;;1.80;;
37107;SDS011;23019;49.300;6.846;2022-10-31T06:09:06;2.90;;;1.67;;
37107;SDS011;23019;49.300;6.846;2022-10-31T06:11:09;2.65;;;1.33;;
37107;SDS011;23019;49.300;6.846;2022-10-31T06:13:29;1.80;;;1.20;;
37107;SDS011;23019;49.300;6.846;2022-10-31T06:15:48;2.70;;;1.98;;
37107;SDS011;23019;49.300;6.846;2022-10-31T06:17:58;2.67;;;1.25;;
37107;SDS011;23019;49.300;6.846;2022-10-31T06:20:07;1.23;;;1.08;;
37107;SDS011;23019;49.300;6.846;2022-10-31T06:22:14;1.73;;;1.20;;
37107;SDS011;23019;49.300;6.846;2022-10-31T06:24:17;1.85;;;1.67;;
37107;SDS011;23019;49.300;6.846;2022-10-31T06:26:43;2.50;;;1.40;;
37107;SDS011;23019;49.300;6.846;2022-10-31T06:28:44;3.13;;;1.80;;
37107;SDS011;23019;49.300;6.846;2022-10-31T06:31:00;2.63;;;1.35;;
37107;SDS011;23019;49.300;6.846;2022-10-31T06:33:02;2.10;;;1.35;;
37107;SDS011;23019;49.300;6.846;2022-10-31T06:35:04;4.88;;;1.92;;
37107;SDS011;23019;49.300;6.846;2022-10-31T06:37:07;4.40;;;1.70;;
37107;SDS011;23019;49.300;6.846;2022-10-31T06:39:08;7.72;;;1.75;;
37107;SDS011;23019;49.300;6.846;2022-10-31T06:41:09;3.15;;;1.67;;
37107;SDS011;23019;49.300;6.846;2022-10-31T06:43:17;1.38;;;1.27;;
37107;SDS011;23019;49.300;6.846;2022-10-31T06:45:18;2.53;;;1.40;;
37107;SDS011;23019;49.300;6.846;2022-10-31T06:47:41;2.47;;;1.40;;
37107;SDS011;23019;49.300;6.846;2022-10-31T06:49:48;1.45;;;1.35;;
37107;SDS011;23019;49.300;6.846;2022-10-31T06:51:51;3.42;;;1.40;;
37107;SDS011;23019;49.300;6.846;2022-10-31T06:53:51;2.13;;;1.38;;
37107;SDS011;23019;49.300;6.846;2022-10-31T06:55:52;5.85;;;1.48;;
37107;SDS011;23019;49.300;6.846;2022-10-31T06:57:57;2.30;;;1.67;;
37107;SDS011;23019;49.300;6.846;2022-10-31T06:59:59;1.52;;;1.23;;
37107;SDS011;23019;49.300;6.846;2022-10-31T07:04:18;1.65;;;1.35;;
37107;SDS011;23019;49.300;6.846;2022-10-31T07:06:19;19.00;;;1.95;;
37107;SDS011;23019;49.300;6.846;2022-10-31T07:08:19;1.63;;;1.40;;
37107;SDS011;23019;49.300;6.846;2022-10-31T07:10:21;3.92;;;1.38;;
37107;SDS011;23019;49.300;6.846;2022-10-31T07:12:31;3.00;;;2.00;;
37107;SDS011;23019;49.300;6.846;2022-10-31T07:14:32;6.57;;;1.80;;
37107;SDS011;23019;49.300;6.846;2022-10-31T07:16:34;2.80;;;1.30;;
37107;SDS011;23019;49.300;6.846;2022-10-31T07:18:37;6.13;;;1.50;;
37107;SDS011;23019;49.300;6.846;2022-10-31T07:20:38;8.18;;;1.42;;
37107;SDS011;23019;49.300;6.846;2022-10-31T07:22:39;3.28;;;1.63;;
37107;SDS011;23019;49.300;6.846;2022-10-31T07:24:42;2.40;;;1.63;;
37107;SDS011;23019;49.300;6.846;2022-10-31T07:27:01;8.02;;;1.77;;
37107;SDS011;23019;49.300;6.846;2022-10-31T07:29:01;8.80;;;1.77;;
37107;SDS011;23019;49.300;6.846;2022-10-31T07:31:02;5.68;;;1.77;;
37107;SDS011;23019;49.300;6.846;2022-10-31T07:33:04;2.63;;;2.13;;
37107;SDS011;23019;49.300;6.846;2022-10-31T07:35:32;3.72;;;2.03;;
37107;SDS011;23019;49.300;6.846;2022-10-31T07:37:33;2.28;;;1.60;;
37107;SDS011;23019;49.300;6.846;2022-10-31T07:39:33;24.27;;;3.50;;
37107;SDS011;23019;49.300;6.846;2022-10-31T07:41:34;38.97;;;3.35;;
37107;SDS011;23019;49.300;6.846;2022-10-31T07:43:36;21.27;;;2.50;;
37107;SDS011;23019;49.300;6.846;2022-10-31T07:45:56;40.13;;;3.30;;
37107;SDS011;23019;49.300;6.846;2022-10-31T07:48:29;28.75;;;2.72;;
37107;SDS011;23019;49.300;6.846;2022-10-31T07:50:48;33.45;;;2.83;;
37107;SDS011;23019;49.300;6.846;2022-10-31T07:53:09;16.27;;;2.53;;
37107;SDS011;23019;49.300;6.846;2022-10-31T07:55:14;21.02;;;2.28;;
37107;SDS011;23019;49.300;6.846;2022-10-31T07:57:20;21.08;;;3.58;;
37107;SDS011;23019;49.300;6.846;2022-10-31T07:59:21;14.70;;;2.15;;
37107;SDS011;23019;49.300;6.846;2022-10-31T08:01:22;10.65;;;2.60;;
37107;SDS011;23019;49.300;6.846;2022-10-31T08:03:42;11.75;;;2.33;;
37107;SDS011;23019;49.300;6.846;2022-10-31T08:06:01;20.60;;;2.28;;
37107;SDS011;23019;49.300;6.846;2022-10-31T08:08:28;15.98;;;2.72;;
37107;SDS011;23019;49.300;6.846;2022-10-31T08:10:29;14.80;;;1.55;;
37107;SDS011;23019;49.300;6.846;2022-10-31T08:12:30;10.20;;;1.70;;
37107;SDS011;23019;49.300;6.846;2022-10-31T08:14:31;5.40;;;1.80;;
37107;SDS011;23019;49.300;6.846;2022-10-31T08:16:32;5.10;;;1.70;;
37107;SDS011;23019;49.300;6.846;2022-10-31T08:18:35;7.45;;;1.70;;
37107;SDS011;23019;49.300;6.846;2022-10-31T08:20:38;11.40;;;2.35;;
37107;SDS011;23019;49.300;6.846;2022-10-31T08:22:39;14.77;;;3.47;;
37107;SDS011;23019;49.300;6.846;2022-10-31T08:24:40;9.52;;;2.42;;
37107;SDS011;23019;49.300;6.846;2022-10-31T08:26:41;10.38;;;1.55;;
37107;SDS011;23019;49.300;6.846;2022-10-31T08:28:43;5.25;;;1.40;;
37107;SDS011;23019;49.300;6.846;2022-10-31T08:30:44;3.90;;;1.38;;
37107;SDS011;23019;49.300;6.846;2022-10-31T08:33:10;3.22;;;1.45;;
37107;SDS011;23019;49.300;6.846;2022-10-31T08:35:48;6.03;;;1.83;;
37107;SDS011;23019;49.300;6.846;2022-10-31T08:38:15;4.85;;;2.10;;
37107;SDS011;23019;49.300;6.846;2022-10-31T08:40:16;7.25;;;1.77;;
37107;SDS011;23019;49.300;6.846;2022-10-31T08:42:17;2.90;;;1.70;;
37107;SDS011;23019;49.300;6.846;2022-10-31T08:44:18;4.95;;;2.33;;
37107;SDS011;23019;49.300;6.846;2022-10-31T08:46:19;7.75;;;1.80;;
37107;SDS011;23019;49.300;6.846;2022-10-31T08:48:20;1.77;;;1.30;;
37107;SDS011;23019;49.300;6.846;2022-10-31T08:50:21;11.38;;;1.98;;
37107;SDS011;23019;49.300;6.846;2022-10-31T08:52:24;6.88;;;1.60;;
37107;SDS011;23019;49.300;6.846;2022-10-31T08:54:29;4.07;;;1.20;;
37107;SDS011;23019;49.300;6.846;2022-10-31T08:56:30;5.28;;;2.95;;
37107;SDS011;23019;49.300;6.846;2022-10-31T08:58:30;9.10;;;1.98;;
37107;SDS011;23019;49.300;6.846;2022-10-31T09:00:35;1.80;;;1.23;;
37107;SDS011;23019;49.300;6.846;2022-10-31T09:02:56;4.63;;;1.83;;
37107;SDS011;23019;49.300;6.846;2022-10-31T09:04:58;2.22;;;1.30;;
37107;SDS011;23019;49.300;6.846;2022-10-31T09:06:58;2.20;;;1.48;;
37107;SDS011;23019;49.300;6.846;2022-10-31T09:08:59;5.03;;;1.75;;
37107;SDS011;23019;49.300;6.846;2022-10-31T09:11:00;2.33;;;1.42;;
37107;SDS011;23019;49.300;6.846;2022-10-31T09:13:24;6.07;;;2.28;;
37107;SDS011;23019;49.300;6.846;2022-10-31T09:16:00;5.13;;;2.45;;
37107;SDS011;23019;49.300;6.846;2022-10-31T09:18:00;7.78;;;2.80;;
37107;SDS011;23019;49.300;6.846;2022-10-31T09:20:05;5.53;;;2.40;;
37107;SDS011;23019;49.300;6.846;2022-10-31T09:22:08;2.45;;;2.20;;
37107;SDS011;23019;49.300;6.846;2022-10-31T09:24:09;2.13;;;1.92;;
37107;SDS011;23019;49.300;6.846;2022-10-31T09:26:10;2.97;;;2.15;;
37107;SDS011;23019;49.300;6.846;2022-10-31T09:28:12;5.40;;;2.13;;
37107;SDS011;23019;49.300;6.846;2022-10-31T09:30:15;3.47;;;2.28;;
37107;SDS011;23019;49.300;6.846;2022-10-31T09:32:17;2.65;;;1.90;;
37107;SDS011;23019;49.300;6.846;2022-10-31T09:34:19;6.28;;;1.83;;
37107;SDS011;23019;49.300;6.846;2022-10-31T09:36:30;2.22;;;1.45;;
37107;SDS011;23019;49.300;6.846;2022-10-31T09:38:31;3.67;;;1.98;;
37107;SDS011;23019;49.300;6.846;2022-10-31T09:40:35;2.97;;;2.25;;
37107;SDS011;23019;49.300;6.846;2022-10-31T09:45:07;2.08;;;1.83;;
37107;SDS011;23019;49.300;6.846;2022-10-31T09:47:39;4.30;;;2.13;;
37107;SDS011;23019;49.300;6.846;2022-10-31T09:50:19;3.88;;;2.47;;
37107;SDS011;23019;49.300;6.846;2022-10-31T09:52:28;5.32;;;1.90;;
37107;SDS011;23019;49.300;6.846;2022-10-31T09:54:38;1.88;;;1.42;;
37107;SDS011;23019;49.300;6.846;2022-10-31T09:56:47;2.53;;;2.03;;
37107;SDS011;23019;49.300;6.846;2022-10-31T09:58:50;2.28;;;1.75;;
37107;SDS011;23019;49.300;6.846;2022-10-31T10:00:56;2.70;;;2.50;;
37107;SDS011;23019;49.300;6.846;2022-10-31T10:05:24;2.13;;;1.70;;
37107;SDS011;23019;49.300;6.846;2022-10-31T10:15:41;1.55;;;1.40;;
37107;SDS011;23019;49.300;6.846;2022-10-31T10:20:21;1.92;;;1.65;;
37107;SDS011;23019;49.300;6.846;2022-10-31T10:25:21;3.40;;;1.52;;
37107;SDS011;23019;49.300;6.846;2022-10-31T10:29:58;1.63;;;1.33;;
37107;SDS011;23019;49.300;6.846;2022-10-31T10:32:22;4.65;;;1.80;;
37107;SDS011;23019;49.300;6.846;2022-10-31T10:34:39;3.22;;;1.35;;
37107;SDS011;23019;49.300;6.846;2022-10-31T10:36:58;3.78;;;1.35;;
37107;SDS011;23019;49.300;6.846;2022-10-31T10:39:13;2.35;;;2.15;;
37107;SDS011;23019;49.300;6.846;2022-10-31T10:41:16;3.00;;;1.73;;
37107;SDS011;23019;49.300;6.846;2022-10-31T10:45:23;1.88;;;1.67;;
37107;SDS011;23019;49.300;6.846;2022-10-31T10:47:43;1.73;;;1.55;;
37107;SDS011;23019;49.300;6.846;2022-10-31T10:49:49;3.00;;;1.38;;
37107;SDS011;23019;49.300;6.846;2022-10-31T10:51:57;3.00;;;1.85;;
37107;SDS011;23019;49.300;6.846;2022-10-31T10:54:09;1.52;;;1.42;;
37107;SDS011;23019;49.300;6.846;2022-10-31T10:56:42;2.25;;;1.50;;
37107;SDS011;23019;49.300;6.846;2022-10-31T10:58:54;3.00;;;1.30;;
37107;SDS011;23019;49.300;6.846;2022-10-31T11:00:56;1.80;;;1.40;;
37107;SDS011;23019;49.300;6.846;2022-10-31T11:02:57;4.85;;;1.70;;
37107;SDS011;23019;49.300;6.846;2022-10-31T11:04:58;2.25;;;2.00;;
37107;SDS011;23019;49.300;6.846;2022-10-31T11:09:09;2.70;;;1.38;;
37107;SDS011;23019;49.300;6.846;2022-10-31T11:13:20;2.35;;;1.80;;
37107;SDS011;23019;49.300;6.846;2022-10-31T11:15:24;1.83;;;1.20;;
37107;SDS011;23019;49.300;6.846;2022-10-31T11:17:27;2.03;;;1.30;;
37107;SDS011;23019;49.300;6.846;2022-10-31T11:19:31;1.35;;;1.17;;
37107;SDS011;23019;49.300;6.846;2022-10-31T11:21:31;1.30;;;1.20;;
37107;SDS011;23019;49.300;6.846;2022-10-31T11:23:34;1.50;;;1.40;;
37107;SDS011;23019;49.300;6.846;2022-10-31T11:25:35;2.85;;;1.00;;
37107;SDS011;23019;49.300;6.846;2022-10-31T11:27:36;3.03;;;1.25;;
37107;SDS011;23019;49.300;6.846;2022-10-31T11:29:36;1.42;;;1.27;;
37107;SDS011;23019;49.300;6.846;2022-10-31T11:31:37;4.13;;;1.48;;
37107;SDS011;23019;49.300;6.846;2022-10-31T11:33:48;1.60;;;1.13;;
37107;SDS011;23019;49.300;6.846;2022-10-31T11:35:52;1.33;;;1.23;;
37107;SDS011;23019;49.300;6.846;2022-10-31T11:37:54;1.30;;;1.20;;
37107;SDS011;23019;49.300;6.846;2022-10-31T11:39:59;3.90;;;1.67;;
37107;SDS011;23019;49.300;6.846;2022-10-31T11:42:05;2.75;;;1.70;;
37107;SDS011;23019;49.300;6.846;2022-10-31T11:44:12;2.90;;;1.67;;
37107;SDS011;23019;49.300;6.846;2022-10-31T11:46:51;4.13;;;1.08;;
37107;SDS011;23019;49.300;6.846;2022-10-31T11:48:47;5.95;;;1.70;;
37107;SDS011;23019;49.300;6.846;2022-10-31T11:50:50;9.35;;;1.50;;
37107;SDS011;23019;49.300;6.846;2022-10-31T11:52:53;14.65;;;1.20;;
37107;SDS011;23019;49.300;6.846;2022-10-31T11:54:57;7.45;;;1.13;;
37107;SDS011;23019;49.300;6.846;2022-10-31T11:57:00;7.93;;;1.23;;
37107;SDS011;23019;49.300;6.846;2022-10-31T11:59:03;5.15;;;1.88;;
37107;SDS011;23019;49.300;6.846;2022-10-31T12:01:28;4.15;;;1.52;;
37107;SDS011;23019;49.300;6.846;2022-10-31T12:06:31;1.92;;;1.67;;
37107;SDS011;23019;49.300;6.846;2022-10-31T12:08:30;3.35;;;1.75;;
37107;SDS011;23019;49.300;6.846;2022-10-31T12:10:40;6.13;;;1.50;;
37107;SDS011;23019;49.300;6.846;2022-10-31T12:12:50;3.83;;;1.98;;
37107;SDS011;23019;49.300;6.846;2022-10-31T12:21:44;3.20;;;1.60;;
37107;SDS011;23019;49.300;6.846;2022-10-31T12:24:40;2.70;;;1.92;;
37107;SDS011;23019;49.300;6.846;2022-10-31T12:26:44;5.45;;;1.67;;
37107;SDS011;23019;49.300;6.846;2022-10-31T12:41:24;7.50;;;1.55;;
37107;SDS011;23019;49.300;6.846;2022-10-31T12:43:46;5.20;;;1.55;;
37107;SDS011;23019;49.300;6.846;2022-10-31T12:45:59;3.25;;;1.40;;
37107;SDS011;23019;49.300;6.846;2022-10-31T12:54:56;3.35;;;1.17;;
37107;SDS011;23019;49.300;6.846;2022-10-31T12:57:30;3.42;;;1.63;;
37107;SDS011;23019;49.300;6.846;2022-10-31T13:00:23;9.00;;;2.15;;
37107;SDS011;23019;49.300;6.846;2022-10-31T13:02:22;2.42;;;2.20;;
37107;SDS011;23019;49.300;6.846;2022-10-31T13:04:33;6.35;;;1.83;;
37107;SDS011;23019;49.300;6.846;2022-10-31T13:06:55;4.82;;;1.80;;
37107;SDS011;23019;49.300;6.846;2022-10-31T13:09:01;7.03;;;2.17;;
37107;SDS011;23019;49.300;6.846;2022-10-31T13:11:08;3.17;;;1.77;;
37107;SDS011;23019;49.300;6.846;2022-10-31T13:13:15;4.57;;;2.05;;
37107;SDS011;23019;49.300;6.846;2022-10-31T13:15:32;2.67;;;1.88;;
37107;SDS011;23019;49.300;6.846;2022-10-31T13:17:47;4.60;;;1.80;;
37107;SDS011;23019;49.300;6.846;2022-10-31T13:19:51;6.63;;;2.25;;
37107;SDS011;23019;49.300;6.846;2022-10-31T13:24:16;17.83;;;2.40;;
37107;SDS011;23019;49.300;6.846;2022-10-31T13:26:32;21.65;;;3.58;;
37107;SDS011;23019;49.300;6.846;2022-10-31T13:30:42;18.10;;;2.58;;
37107;SDS011;23019;49.300;6.846;2022-10-31T13:34:55;16.50;;;3.33;;
37107;SDS011;23019;49.300;6.846;2022-10-31T13:37:00;25.40;;;3.15;;
37107;SDS011;23019;49.300;6.846;2022-10-31T13:39:25;19.63;;;2.95;;
37107;SDS011;23019;49.300;6.846;2022-10-31T13:46:21;19.58;;;3.75;;
37107;SDS011;23019;49.300;6.846;2022-10-31T13:48:42;16.02;;;3.92;;
37107;SDS011;23019;49.300;6.846;2022-10-31T13:50:54;29.50;;;5.03;;
37107;SDS011;23019;49.300;6.846;2022-10-31T13:53:08;35.33;;;4.70;;
37107;SDS011;23019;49.300;6.846;2022-10-31T13:55:43;35.47;;;4.65;;
37107;SDS011;23019;49.300;6.846;2022-10-31T13:57:46;46.45;;;7.85;;
37107;SDS011;23019;49.300;6.846;2022-10-31T13:59:48;55.88;;;6.38;;
37107;SDS011;23019;49.300;6.846;2022-10-31T14:02:01;35.60;;;6.75;;
37107;SDS011;23019;49.300;6.846;2022-10-31T14:06:15;30.08;;;5.70;;
37107;SDS011;23019;49.300;6.846;2022-10-31T14:08:17;51.72;;;7.35;;
37107;SDS011;23019;49.300;6.846;2022-10-31T14:12:39;40.58;;;6.32;;
37107;SDS011;23019;49.300;6.846;2022-10-31T14:14:44;48.05;;;6.97;;
37107;SDS011;23019;49.300;6.846;2022-10-31T14:16:52;41.88;;;6.68;;
37107;SDS011;23019;49.300;6.846;2022-10-31T14:18:58;47.97;;;6.80;;
37107;SDS011;23019;49.300;6.846;2022-10-31T14:21:01;46.70;;;8.05;;
37107;SDS011;23019;49.300;6.846;2022-10-31T14:25:36;54.05;;;6.15;;
37107;SDS011;23019;49.300;6.846;2022-10-31T14:27:44;41.30;;;8.93;;
37107;SDS011;23019;49.300;6.846;2022-10-31T14:29:46;41.67;;;7.57;;
37107;SDS011;23019;49.300;6.846;2022-10-31T14:33:59;29.23;;;6.75;;
37107;SDS011;23019;49.300;6.846;2022-10-31T14:36:30;50.53;;;7.35;;
37107;SDS011;23019;49.300;6.846;2022-10-31T14:38:54;52.55;;;7.07;;
37107;SDS011;23019;49.300;6.846;2022-10-31T14:43:16;37.72;;;6.80;;
37107;SDS011;23019;49.300;6.846;2022-10-31T14:48:09;36.70;;;7.38;;
37107;SDS011;23019;49.300;6.846;2022-10-31T14:52:23;76.55;;;9.70;;
37107;SDS011;23019;49.300;6.846;2022-10-31T14:56:32;58.78;;;10.82;;